createdAt,value
2022-12-25T00:00:55.234Z,98369.06
2022-12-25T00:03:21.971Z,98362.09
2022-12-25T00:05:48.407Z,98361.44
2022-12-25T00:08:14.874Z,98356.09
2022-12-25T00:10:45.291Z,98361.41
2022-12-25T00:13:12.183Z,98360.19
2022-12-25T00:15:41.893Z,98365.50
2022-12-25T00:18:08.506Z,98355.69
2022-12-25T00:20:36.226Z,98358.97
2022-12-25T00:23:02.709Z,98355.47
2022-12-25T00:25:29.111Z,98357.94
2022-12-25T00:27:55.661Z,98357.34
2022-12-25T00:30:22.076Z,98352.44
2022-12-25T00:32:48.731Z,98341.59
2022-12-25T00:35:15.215Z,98345.25
2022-12-25T00:37:41.645Z,98357.47
2022-12-25T00:40:08.604Z,98349.28
2022-12-25T00:42:35.070Z,98354.59
2022-12-25T00:45:01.671Z,98355.81
2022-12-25T00:47:28.171Z,98358.69
2022-12-25T00:49:55.100Z,98360.50
2022-12-25T00:52:21.472Z,98357.47
2022-12-25T00:54:47.905Z,98344.78
2022-12-25T00:57:14.275Z,98357.06
2022-12-25T00:59:40.753Z,98355.41
2022-12-25T01:02:25.804Z,98357.25
2022-12-25T01:04:56.843Z,98361.75
2022-12-25T01:07:25.732Z,98365.44
2022-12-25T01:10:10.905Z,98372.78
2022-12-25T01:12:40.821Z,98379.94
2022-12-25T01:15:08.778Z,98386.91
2022-12-25T01:17:35.179Z,98383.22
2022-12-25T01:20:02.155Z,98382.19
2022-12-25T01:22:28.606Z,98386.50
2022-12-25T01:24:55.029Z,98390.78
2022-12-25T01:27:21.445Z,98387.72
2022-12-25T01:29:47.845Z,98383.81
2022-12-25T01:32:14.319Z,98381.06
2022-12-25T01:34:40.743Z,98382.50
2022-12-25T01:37:07.225Z,98382.88
2022-12-25T01:39:34.171Z,98374.28
2022-12-25T01:42:00.578Z,98376.13
2022-12-25T01:44:36.117Z,98372.66
2022-12-25T01:47:06.567Z,98365.09
2022-12-25T01:49:36.475Z,98369.19
2022-12-25T01:52:11.667Z,98371.84
2022-12-25T01:54:43.319Z,98371.00
2022-12-25T01:57:16.793Z,98368.75
2022-12-25T01:59:43.644Z,98367.75
2022-12-25T02:02:10.624Z,98373.47
2022-12-25T02:04:58.694Z,98375.13
2022-12-25T02:07:28.348Z,98380.44
2022-12-25T02:09:54.708Z,98377.56
2022-12-25T02:12:24.613Z,98383.91
2022-12-25T02:14:53.410Z,98383.91
2022-12-25T02:17:31.064Z,98384.72
2022-12-25T02:20:31.380Z,98386.75
2022-12-25T02:23:32.077Z,98386.75
2022-12-25T02:26:17.017Z,98387.16
2022-12-25T02:29:17.460Z,98370.59
2022-12-25T02:31:59.222Z,98377.13
2022-12-25T02:34:38.140Z,98380.78
2022-12-25T02:37:18.088Z,98392.03
2022-12-25T02:39:59.499Z,98387.34
2022-12-25T02:43:02.323Z,98385.72
2022-12-25T02:46:12.502Z,98384.06
2022-12-25T02:49:02.771Z,98386.09
2022-12-25T02:51:51.169Z,98382.22
2022-12-25T02:54:44.278Z,98379.72
2022-12-25T02:57:33.152Z,98377.06
2022-12-25T03:00:20.948Z,98373.59
2022-12-25T03:03:07.192Z,98370.09
2022-12-25T03:05:55.558Z,98373.59
2022-12-25T03:08:28.971Z,98373.78
2022-12-25T03:11:21.968Z,98362.53
2022-12-25T03:13:52.961Z,98354.97
2022-12-25T03:16:38.770Z,98355.16
2022-12-25T03:19:25.361Z,98357.59
2022-12-25T03:22:11.939Z,98344.09
2022-12-25T03:24:57.735Z,98345.28
2022-12-25T03:27:24.733Z,98346.88
2022-12-25T03:30:09.586Z,98340.31
2022-12-25T03:32:54.450Z,98342.94
2022-12-25T03:36:03.285Z,98343.91
2022-12-25T03:38:46.575Z,98348.31
2022-12-25T03:41:54.487Z,98342.41
2022-12-25T03:44:53.863Z,98338.25
2022-12-25T03:47:49.722Z,98328.41
2022-12-25T03:50:39.675Z,98323.44
2022-12-25T03:53:34.599Z,98317.88
2022-12-25T03:56:21.124Z,98323.16
2022-12-25T03:59:11.062Z,98316.56
2022-12-25T04:01:56.027Z,98315.69
2022-12-25T04:04:41.287Z,98309.31
2022-12-25T04:07:26.000Z,98302.31
2022-12-25T04:10:10.756Z,98297.75
2022-12-25T04:12:55.597Z,98304.06
2022-12-25T04:15:40.410Z,98313.41
2022-12-25T04:18:25.466Z,98314.00
2022-12-25T04:21:10.269Z,98326.19
2022-12-25T04:23:55.069Z,98326.91
2022-12-25T04:26:39.815Z,98324.00
2022-12-25T04:29:24.780Z,98325.78
2022-12-25T04:32:09.447Z,98332.00
2022-12-25T04:34:54.266Z,98337.41
2022-12-25T04:37:20.772Z,98343.44
2022-12-25T04:39:47.137Z,98340.53
2022-12-25T04:42:13.626Z,98342.75
2022-12-25T04:44:39.998Z,98347.41
2022-12-25T04:47:11.202Z,98359.34
2022-12-25T04:49:38.196Z,98359.09
2022-12-25T04:52:04.862Z,98366.38
2022-12-25T04:54:31.228Z,98359.81
2022-12-25T04:56:57.712Z,98359.56
2022-12-25T04:59:24.264Z,98358.59
2022-12-25T05:01:50.815Z,98348.38
2022-12-25T05:04:17.369Z,98350.19
2022-12-25T05:06:43.797Z,98352.22
2022-12-25T05:09:10.611Z,98349.28
2022-12-25T05:11:36.982Z,98342.72
2022-12-25T05:14:03.476Z,98337.63
2022-12-25T05:16:30.099Z,98340.44
2022-12-25T05:18:57.975Z,98337.97
2022-12-25T05:21:24.412Z,98339.13
2022-12-25T05:23:51.663Z,98343.59
2022-12-25T05:26:23.634Z,98348.06
2022-12-25T05:28:50.416Z,98353.56
2022-12-25T05:31:17.734Z,98351.47
2022-12-25T05:33:44.355Z,98342.06
2022-12-25T05:36:12.344Z,98338.59
2022-12-25T05:38:39.156Z,98342.44
2022-12-25T05:41:06.116Z,98331.22
2022-12-25T05:43:32.774Z,98330.19
2022-12-25T05:46:08.867Z,98330.84
2022-12-25T05:48:37.041Z,98324.81
2022-12-25T05:51:08.373Z,98317.97
2022-12-25T05:53:35.588Z,98323.19
2022-12-25T05:56:04.101Z,98314.25
2022-12-25T05:58:31.708Z,98321.44
2022-12-25T06:00:58.569Z,98321.06
2022-12-25T06:03:25.662Z,98319.53
2022-12-25T06:05:52.617Z,98333.34
2022-12-25T06:08:19.267Z,98322.81
2022-12-25T06:10:45.903Z,98312.16
2022-12-25T06:13:12.366Z,98311.59
2022-12-25T06:15:40.938Z,98312.84
2022-12-25T06:18:08.249Z,98318.41
2022-12-25T06:20:34.720Z,98318.03
2022-12-25T06:23:02.087Z,98315.47
2022-12-25T06:25:28.528Z,98320.47
2022-12-25T06:27:54.930Z,98321.16
2022-12-25T06:30:21.367Z,98314.31
2022-12-25T06:32:47.765Z,98315.81
2022-12-25T06:35:14.255Z,98305.47
2022-12-25T06:37:40.725Z,98310.81
2022-12-25T06:40:07.927Z,98300.50
2022-12-25T06:42:34.431Z,98297.66
2022-12-25T06:45:00.867Z,98306.03
2022-12-25T06:47:27.213Z,98312.59
2022-12-25T06:49:53.698Z,98330.00
2022-12-25T06:52:20.034Z,98329.06
2022-12-25T06:54:47.053Z,98330.75
2022-12-25T06:57:13.418Z,98327.72
2022-12-25T06:59:39.806Z,98327.13
2022-12-25T07:02:06.314Z,98330.06
2022-12-25T07:04:40.521Z,98332.31
2022-12-25T07:07:09.290Z,98333.56
2022-12-25T07:09:36.031Z,98334.59
2022-12-25T07:12:08.530Z,98336.63
2022-12-25T07:14:34.879Z,98332.72
2022-12-25T07:17:01.290Z,98336.75
2022-12-25T07:19:27.876Z,98335.28
2022-12-25T07:21:54.393Z,98336.94
2022-12-25T07:24:22.478Z,98335.72
2022-12-25T07:26:50.810Z,98341.31
2022-12-25T07:29:19.515Z,98346.22
2022-12-25T07:31:46.313Z,98345.44
2022-12-25T07:34:12.781Z,98341.56
2022-12-25T07:36:39.235Z,98341.63
2022-12-25T07:39:05.728Z,98336.75
2022-12-25T07:41:32.122Z,98350.06
2022-12-25T07:43:58.509Z,98346.00
2022-12-25T07:46:25.155Z,98341.13
2022-12-25T07:48:51.909Z,98339.53
2022-12-25T07:51:18.323Z,98326.91
2022-12-25T07:53:44.694Z,98321.19
2022-12-25T07:56:17.418Z,98312.34
2022-12-25T07:58:44.590Z,98310.09
2022-12-25T08:01:23.196Z,98308.25
2022-12-25T08:04:00.824Z,98309.28
2022-12-25T08:06:31.556Z,98312.34
2022-12-25T08:09:05.170Z,98317.91
2022-12-25T08:11:31.486Z,98323.66
2022-12-25T08:13:57.950Z,98326.72
2022-12-25T08:16:24.429Z,98331.84
2022-12-25T08:18:50.966Z,98323.69
2022-12-25T08:21:17.408Z,98320.81
2022-12-25T08:23:46.225Z,98313.25
2022-12-25T08:26:19.115Z,98311.03
2022-12-25T08:28:45.489Z,98304.09
2022-12-25T08:31:16.685Z,98295.56
2022-12-25T08:33:43.864Z,98286.94
2022-12-25T08:36:11.595Z,98286.13
2022-12-25T08:38:39.261Z,98277.78
2022-12-25T08:41:05.924Z,98280.47
2022-12-25T08:43:32.579Z,98289.88
2022-12-25T08:45:59.082Z,98285.38
2022-12-25T08:48:25.630Z,98288.31
2022-12-25T08:50:52.792Z,98298.56
2022-12-25T08:53:20.142Z,98313.72
2022-12-25T08:55:46.886Z,98327.88
2022-12-25T08:58:14.552Z,98330.75
2022-12-25T09:00:41.374Z,98308.47
2022-12-25T09:03:08.065Z,98305.22
2022-12-25T09:05:37.748Z,98305.81
2022-12-25T09:08:04.618Z,98312.19
2022-12-25T09:10:31.800Z,98292.53
2022-12-25T09:12:58.151Z,98298.69
2022-12-25T09:15:24.526Z,98300.34
2022-12-25T09:17:50.917Z,98308.50
2022-12-25T09:20:17.363Z,98320.63
2022-12-25T09:22:43.753Z,98321.22
2022-12-25T09:25:10.383Z,98338.63
2022-12-25T09:27:36.739Z,98334.94
2022-12-25T09:30:04.181Z,98330.03
2022-12-25T09:32:30.495Z,98330.22
2022-12-25T09:34:56.925Z,98333.91
2022-12-25T09:37:23.341Z,98342.47
2022-12-25T09:39:49.669Z,98334.50
2022-12-25T09:42:21.939Z,98334.72
2022-12-25T09:45:14.790Z,98313.19
2022-12-25T09:47:44.033Z,98304.16
2022-12-25T09:50:38.085Z,98308.69
2022-12-25T09:53:10.621Z,98290.25
2022-12-25T09:55:45.492Z,98282.47
2022-12-25T09:58:13.483Z,98284.91
2022-12-25T10:00:48.393Z,98273.66
2022-12-25T10:03:33.022Z,98271.59
2022-12-25T10:06:27.492Z,98268.72
2022-12-25T10:09:18.668Z,98261.53
2022-12-25T10:12:03.772Z,98252.28
2022-12-25T10:14:44.164Z,98226.69
2022-12-25T10:17:40.993Z,98225.25
2022-12-25T10:20:36.674Z,98203.31
2022-12-25T10:23:09.709Z,98201.03
2022-12-25T10:25:38.787Z,98189.78
2022-12-25T10:28:14.150Z,98183.41
2022-12-25T10:30:43.513Z,98177.22
2022-12-25T10:33:16.836Z,98181.13
2022-12-25T10:35:44.182Z,98183.59
2022-12-25T10:38:17.503Z,98190.38
2022-12-25T10:41:19.687Z,98195.06
2022-12-25T10:43:51.474Z,98197.34
2022-12-25T10:46:19.808Z,98199.31
2022-12-25T10:48:51.003Z,98202.53
2022-12-25T10:51:29.601Z,98218.13
2022-12-25T10:53:56.177Z,98211.66
2022-12-25T10:56:22.771Z,98217.16
2022-12-25T10:58:49.182Z,98215.00
2022-12-25T11:01:16.021Z,98212.72
2022-12-25T11:03:51.151Z,98203.84
2022-12-25T11:06:24.153Z,98196.81
2022-12-25T11:08:56.903Z,98201.25
2022-12-25T11:11:24.508Z,98199.38
2022-12-25T11:13:54.698Z,98192.94
2022-12-25T11:16:40.163Z,98195.59
2022-12-25T11:19:21.736Z,98177.28
2022-12-25T11:21:53.263Z,98184.75
2022-12-25T11:24:22.483Z,98167.47
2022-12-25T11:26:54.991Z,98160.50
2022-12-25T11:29:35.180Z,98160.19
2022-12-25T11:32:04.199Z,98155.50
2022-12-25T11:34:38.393Z,98144.75
2022-12-25T11:37:12.584Z,98140.47
2022-12-25T11:39:41.187Z,98133.16
2022-12-25T11:42:14.998Z,98136.50
2022-12-25T11:45:01.116Z,98128.44
2022-12-25T11:47:43.204Z,98129.47
2022-12-25T11:50:23.462Z,98118.22
2022-12-25T11:52:51.897Z,98126.50
2022-12-25T11:55:25.196Z,98130.34
2022-12-25T11:57:57.744Z,98129.25
2022-12-25T12:00:24.490Z,98127.31
2022-12-25T12:03:34.395Z,98125.13
2022-12-25T12:06:07.990Z,98121.00
2022-12-25T12:08:36.100Z,98119.06
2022-12-25T12:11:16.563Z,98109.31
2022-12-25T12:13:57.847Z,98118.94
2022-12-25T12:16:24.464Z,98117.31
2022-12-25T12:18:51.096Z,98114.34
2022-12-25T12:21:17.509Z,98105.03
2022-12-25T12:24:18.798Z,98091.66
2022-12-25T12:26:47.225Z,98091.06
2022-12-25T12:29:25.166Z,98089.56
2022-12-25T12:31:53.348Z,98075.38
2022-12-25T12:34:31.647Z,98077.94
2022-12-25T12:37:06.339Z,98072.00
2022-12-25T12:39:39.502Z,98059.44
2022-12-25T12:42:25.936Z,98053.38
2022-12-25T12:44:55.861Z,98060.72
2022-12-25T12:47:37.346Z,98061.84
2022-12-25T12:50:04.974Z,98060.84
2022-12-25T12:52:33.433Z,98057.06
2022-12-25T12:55:03.277Z,98049.94
2022-12-25T12:57:39.618Z,98039.94
2022-12-25T13:00:11.911Z,98040.06
2022-12-25T13:02:46.973Z,98055.50
2022-12-25T13:05:20.384Z,98054.03
2022-12-25T13:08:18.049Z,98043.56
2022-12-25T13:10:50.335Z,98043.78
2022-12-25T13:13:34.091Z,98046.09
2022-12-25T13:16:00.484Z,98057.16
2022-12-25T13:18:26.974Z,98052.75
2022-12-25T13:20:55.314Z,98055.28
2022-12-25T13:23:29.210Z,98048.69
2022-12-25T13:26:11.626Z,98041.56
2022-12-25T13:28:37.977Z,98025.66
2022-12-25T13:31:17.332Z,98027.28
2022-12-25T13:34:02.467Z,98031.69
2022-12-25T13:36:35.050Z,98041.00
2022-12-25T13:39:01.732Z,98032.16
2022-12-25T13:41:55.486Z,98032.16
2022-12-25T13:44:26.189Z,98021.56
2022-12-25T13:46:52.609Z,98014.56
2022-12-25T13:49:23.141Z,98022.38
2022-12-25T13:51:50.996Z,98017.88
2022-12-25T13:54:18.509Z,98016.81
2022-12-25T13:56:51.905Z,98024.84
2022-12-25T13:59:21.859Z,98024.38
2022-12-25T14:01:51.264Z,98015.31
2022-12-25T14:04:23.499Z,98018.69
2022-12-25T14:06:50.934Z,98018.06
2022-12-25T14:09:18.053Z,98019.09
2022-12-25T14:11:49.199Z,98022.16
2022-12-25T14:14:24.359Z,98021.34
2022-12-25T14:16:54.835Z,98019.91
2022-12-25T14:19:32.574Z,98024.69
2022-12-25T14:22:11.257Z,98020.03
2022-12-25T14:24:39.852Z,98022.56
2022-12-25T14:27:16.064Z,98024.66
2022-12-25T14:29:45.617Z,98017.78
2022-12-25T14:32:17.742Z,98016.34
2022-12-25T14:34:46.422Z,98030.16
2022-12-25T14:37:17.852Z,98035.94
2022-12-25T14:39:48.003Z,98041.97
2022-12-25T14:42:23.013Z,98031.97
2022-12-25T14:45:03.353Z,98030.25
2022-12-25T14:47:31.625Z,98018.16
2022-12-25T14:49:58.643Z,98030.47
2022-12-25T14:52:31.162Z,98031.97
2022-12-25T14:55:01.045Z,98029.75
2022-12-25T14:57:34.414Z,98020.91
2022-12-25T15:00:05.321Z,98012.31
2022-12-25T15:02:39.902Z,97999.44
2022-12-25T15:05:23.702Z,97990.03
2022-12-25T15:08:19.226Z,97990.66
2022-12-25T15:10:59.631Z,97987.72
2022-12-25T15:13:27.474Z,97999.88
2022-12-25T15:16:00.768Z,98004.44
2022-12-25T15:18:32.928Z,98011.63
2022-12-25T15:20:59.503Z,98006.75
2022-12-25T15:23:26.045Z,98006.97
2022-12-25T15:25:52.861Z,97998.38
2022-12-25T15:28:19.947Z,97983.84
2022-12-25T15:30:46.970Z,97991.72
2022-12-25T15:33:15.556Z,97997.25
2022-12-25T15:35:44.139Z,98005.13
2022-12-25T15:38:12.330Z,98004.50
2022-12-25T15:40:38.893Z,98008.19
2022-12-25T15:43:11.376Z,98000.41
2022-12-25T15:45:47.403Z,98006.41
2022-12-25T15:48:13.800Z,97999.91
2022-12-25T15:50:40.177Z,97999.75
2022-12-25T15:53:06.750Z,98011.44
2022-12-25T15:55:34.242Z,98015.13
2022-12-25T15:58:00.626Z,98004.88
2022-12-25T16:00:27.201Z,98019.06
2022-12-25T16:02:53.977Z,98011.06
2022-12-25T16:05:20.638Z,98007.22
2022-12-25T16:07:47.134Z,97999.44
2022-12-25T16:10:18.076Z,98006.84
2022-12-25T16:12:45.061Z,98009.13
2022-12-25T16:15:13.718Z,98013.63
2022-12-25T16:17:40.955Z,98013.84
2022-12-25T16:20:08.630Z,98009.19
2022-12-25T16:22:39.964Z,98006.09
2022-12-25T16:25:13.275Z,98009.00
2022-12-25T16:27:39.702Z,98004.97
2022-12-25T16:30:06.702Z,98005.19
2022-12-25T16:32:33.370Z,97991.50
2022-12-25T16:34:59.850Z,97991.94
2022-12-25T16:37:27.566Z,97982.50
2022-12-25T16:39:54.096Z,97972.06
2022-12-25T16:42:20.670Z,97973.31
2022-12-25T16:44:47.106Z,97984.41
2022-12-25T16:47:13.455Z,97990.53
2022-12-25T16:49:39.869Z,97987.28
2022-12-25T16:52:06.380Z,97992.00
2022-12-25T16:54:32.809Z,97980.69
2022-12-25T16:56:59.274Z,97987.88
2022-12-25T16:59:28.404Z,97989.94
2022-12-25T17:01:54.947Z,97992.97
2022-12-25T17:04:21.771Z,97995.44
2022-12-25T17:06:49.198Z,98005.06
2022-12-25T17:09:15.562Z,98008.09
2022-12-25T17:11:41.956Z,97995.81
2022-12-25T17:14:08.465Z,97999.28
2022-12-25T17:16:36.656Z,97995.19
2022-12-25T17:19:12.092Z,97993.94
2022-12-25T17:21:38.758Z,97981.66
2022-12-25T17:24:05.745Z,97971.81
2022-12-25T17:26:32.952Z,97971.22
2022-12-25T17:28:59.946Z,97964.84
2022-12-25T17:31:26.710Z,97965.66
2022-12-25T17:33:53.150Z,97970.78
2022-12-25T17:36:21.143Z,97961.16
2022-12-25T17:38:48.402Z,97972.03
2022-12-25T17:41:16.534Z,97976.53
2022-12-25T17:43:45.626Z,97963.03
2022-12-25T17:46:24.380Z,97960.38
2022-12-25T17:48:52.618Z,97965.09
2022-12-25T17:51:22.002Z,97965.31
2022-12-25T17:53:51.113Z,97976.34
2022-12-25T17:56:19.177Z,97976.56
2022-12-25T17:58:51.406Z,97979.44
2022-12-25T18:01:18.431Z,97981.91
2022-12-25T18:03:45.532Z,97972.72
2022-12-25T18:06:14.918Z,97977.59
2022-12-25T18:08:42.860Z,97968.78
2022-12-25T18:11:13.653Z,97959.00
2022-12-25T18:13:42.086Z,97958.41
2022-12-25T18:16:08.895Z,97950.09
2022-12-25T18:18:35.484Z,97933.56
2022-12-25T18:21:02.231Z,97944.97
2022-12-25T18:23:29.251Z,97946.63
2022-12-25T18:25:56.345Z,97947.25
2022-12-25T18:28:22.837Z,97970.59
2022-12-25T18:30:49.295Z,97972.06
2022-12-25T18:33:15.701Z,97968.38
2022-12-25T18:35:43.516Z,97964.53
2022-12-25T18:38:11.612Z,97966.97
2022-12-25T18:40:47.724Z,97965.72
2022-12-25T18:43:14.826Z,97969.19
2022-12-25T18:45:42.173Z,97967.34
2022-12-25T18:48:09.636Z,97966.53
2022-12-25T18:50:40.382Z,97981.69
2022-12-25T18:53:07.700Z,97981.72
2022-12-25T18:55:34.141Z,97992.81
2022-12-25T18:58:01.094Z,97987.09
2022-12-25T19:00:28.089Z,97990.16
2022-12-25T19:02:58.767Z,97992.81
2022-12-25T19:05:26.204Z,97979.34
2022-12-25T19:07:52.836Z,97986.50
2022-12-25T19:10:19.499Z,97980.81
2022-12-25T19:12:46.027Z,97969.56
2022-12-25T19:15:12.572Z,97963.03
2022-12-25T19:17:39.012Z,97954.06
2022-12-25T19:20:06.197Z,97957.75
2022-12-25T19:22:32.593Z,97958.19
2022-12-25T19:24:59.099Z,97957.16
2022-12-25T19:27:25.576Z,97945.50
2022-12-25T19:29:51.987Z,97952.88
2022-12-25T19:32:18.412Z,97944.50
2022-12-25T19:34:44.955Z,97934.69
2022-12-25T19:37:12.386Z,97933.47
2022-12-25T19:39:39.810Z,97922.84
2022-12-25T19:42:06.231Z,97930.00
2022-12-25T19:44:32.850Z,97922.25
2022-12-25T19:46:59.223Z,97933.47
2022-12-25T19:49:25.647Z,97930.59
2022-12-25T19:51:52.059Z,97934.69
2022-12-25T19:54:20.506Z,97943.88
2022-12-25T19:56:48.604Z,97950.22
2022-12-25T19:59:15.699Z,97957.81
2022-12-25T20:01:42.339Z,97957.81
2022-12-25T20:04:10.705Z,97962.69
2022-12-25T20:06:39.139Z,97969.03
2022-12-25T20:09:08.672Z,97970.06
2022-12-25T20:11:36.697Z,97968.44
2022-12-25T20:14:04.637Z,97984.00
2022-12-25T20:16:31.374Z,97986.88
2022-12-25T20:18:58.567Z,97995.28
2022-12-25T20:21:27.415Z,97996.50
2022-12-25T20:23:54.662Z,97995.88
2022-12-25T20:26:24.362Z,98008.56
2022-12-25T20:28:51.425Z,98017.78
2022-12-25T20:31:21.861Z,98017.81
2022-12-25T20:33:48.630Z,98017.63
2022-12-25T20:36:15.404Z,98025.81
2022-12-25T20:38:42.240Z,98017.03
2022-12-25T20:41:28.355Z,98013.97
2022-12-25T20:43:55.970Z,98020.91
2022-12-25T20:46:22.804Z,98019.06
2022-12-25T20:48:49.285Z,98022.34
2022-12-25T20:51:20.842Z,98023.78
2022-12-25T20:53:48.038Z,98027.03
2022-12-25T20:56:17.336Z,98016.03
2022-12-25T20:58:43.961Z,98017.25
2022-12-25T21:01:13.459Z,98020.28
2022-12-25T21:03:40.628Z,98012.53
2022-12-25T21:06:08.005Z,98018.25
2022-12-25T21:08:34.682Z,98017.84
2022-12-25T21:11:01.564Z,98027.84
2022-12-25T21:13:29.986Z,98027.25
2022-12-25T21:15:57.274Z,98021.31
2022-12-25T21:18:25.295Z,98026.03
2022-12-25T21:20:54.213Z,98018.25
2022-12-25T21:23:21.302Z,98024.81
2022-12-25T21:25:48.727Z,98025.19
2022-12-25T21:28:16.113Z,98020.06
2022-12-25T21:30:42.733Z,98017.81
2022-12-25T21:33:30.733Z,98012.72
2022-12-25T21:36:04.922Z,98013.13
2022-12-25T21:38:31.356Z,98008.84
2022-12-25T21:41:05.306Z,98011.50
2022-12-25T21:43:34.071Z,98011.09
2022-12-25T21:46:05.841Z,98016.19
2022-12-25T21:48:32.553Z,98008.81
2022-12-25T21:51:41.098Z,98007.19
2022-12-25T21:54:07.942Z,98006.34
2022-12-25T21:56:43.072Z,98007.59
2022-12-25T21:59:13.649Z,98011.25
2022-12-25T22:01:40.059Z,98007.78
2022-12-25T22:04:08.517Z,98006.16
2022-12-25T22:06:54.172Z,98005.34
2022-12-25T22:09:21.476Z,98012.28
2022-12-25T22:12:06.909Z,98023.31
2022-12-25T22:14:56.809Z,98039.22
2022-12-25T22:17:54.353Z,98043.72
2022-12-25T22:20:23.989Z,98049.84
2022-12-25T22:22:51.240Z,98056.59
2022-12-25T22:25:18.566Z,98051.47
2022-12-25T22:27:46.216Z,98055.41
2022-12-25T22:30:16.055Z,98063.78
2022-12-25T22:32:42.969Z,98062.13
2022-12-25T22:35:12.444Z,98055.41
2022-12-25T22:37:39.985Z,98052.34
2022-12-25T22:40:08.376Z,98047.66
2022-12-25T22:42:35.123Z,98055.41
2022-12-25T22:45:02.316Z,98054.38
2022-12-25T22:47:28.824Z,98061.53
2022-12-25T22:49:55.329Z,98068.50
2022-12-25T22:52:21.913Z,98068.50
2022-12-25T22:54:48.399Z,98073.81
2022-12-25T22:57:14.957Z,98077.28
2022-12-25T22:59:41.484Z,98062.34
2022-12-25T23:02:08.457Z,98069.50
2022-12-25T23:04:35.485Z,98074.00
2022-12-25T23:07:02.347Z,98077.47
2022-12-25T23:09:29.045Z,98069.31
2022-12-25T23:11:57.796Z,98070.31
2022-12-25T23:14:40.430Z,98067.03
2022-12-25T23:17:31.317Z,98059.69
2022-12-25T23:20:18.248Z,98067.69
2022-12-25T23:23:04.334Z,98073.63
2022-12-25T23:25:49.649Z,98068.75
2022-12-25T23:28:36.072Z,98072.00
2022-12-25T23:31:02.694Z,98070.38
2022-12-25T23:33:29.200Z,98072.63
2022-12-25T23:35:55.705Z,98072.41
2022-12-25T23:38:22.251Z,98074.84
2022-12-25T23:40:48.854Z,98076.31
2022-12-25T23:43:15.371Z,98078.56
2022-12-25T23:45:41.965Z,98073.66
2022-12-25T23:48:08.599Z,98087.13
2022-12-25T23:50:35.089Z,98085.91
2022-12-25T23:53:01.798Z,98090.59
2022-12-25T23:55:28.317Z,98097.53
2022-12-25T23:57:54.755Z,98089.16
